Norris Observed Data For Previous 48 Hours

Caption
Day and Hour Reservoir Elevation (behind dam)* Tailwater Elevation (below dam)* Average Hourly Discharge*
3/24/2019 2 AM EDT 1,012.31 829.61 15,130
3/24/2019 3 AM EDT 1,012.28 829.47 15,135
3/24/2019 4 AM EDT 1,012.25 829.56 15,131
3/24/2019 5 AM EDT 1,012.21 829.57 15,131
3/24/2019 6 AM EDT 1,012.19 829.66 15,124
3/24/2019 7 AM EDT 1,012.16 829.57 15,138
3/24/2019 8 AM EDT 1,012.13 829.58 15,128
3/24/2019 9 AM EDT 1,012.10 829.64 15,129
3/24/2019 10 AM EDT 1,012.07 829.56 15,126
3/24/2019 11 AM EDT 1,012.03 829.55 15,114
3/24/2019 12 PM EDT 1,011.99 829.63 15,109
3/24/2019 1 PM EDT 1,011.96 829.56 15,145
3/24/2019 2 PM EDT 1,011.92 829.65 15,150
3/24/2019 3 PM EDT 1,011.88 829.62 15,149
3/24/2019 4 PM EDT 1,011.86 829.62 15,147
3/24/2019 5 PM EDT 1,011.84 829.49 15,153
3/24/2019 6 PM EDT 1,011.83 829.58 15,150
3/24/2019 7 PM EDT 1,011.79 829.60 15,147
3/24/2019 8 PM EDT 1,011.75 829.62 15,132
3/24/2019 9 PM EDT 1,011.73 829.54 15,131
3/24/2019 10 PM EDT 1,011.71 829.60 15,132
3/24/2019 11 PM EDT 1,011.67 829.60 15,118
3/25/2019 12 AM EDT 1,011.64 829.59 15,122
3/25/2019 1 AM EDT 1,011.61 829.55 15,128
3/25/2019 2 AM EDT 1,011.57 829.48 15,130
3/25/2019 3 AM EDT 1,011.55 829.67 15,129
3/25/2019 4 AM EDT 1,011.53 829.58 15,131
3/25/2019 5 AM EDT 1,011.48 829.58 15,114
3/25/2019 6 AM EDT 1,011.46 829.62 15,082
3/25/2019 7 AM EDT 1,011.43 829.57 15,091
3/25/2019 8 AM EDT 1,011.40 829.55 15,090
3/25/2019 9 AM EDT 1,011.37 829.54 15,085
3/25/2019 10 AM EDT 1,011.33 829.55 15,086
3/25/2019 11 AM EDT 1,011.30 829.52 15,084
3/25/2019 12 PM EDT 1,011.31 828.31 15,087
3/25/2019 1 PM EDT 1,011.27 827.42 9,782
3/25/2019 2 PM EDT 1,011.24 827.37 8,716
3/25/2019 3 PM EDT 1,011.23 827.36 8,717
3/25/2019 4 PM EDT 1,011.24 827.37 8,721
3/25/2019 5 PM EDT 1,011.20 827.41 8,718
3/25/2019 6 PM EDT 1,011.19 827.36 8,713
3/25/2019 7 PM EDT 1,011.19 827.35 8,706
3/25/2019 8 PM EDT 1,011.16 827.41 8,713
3/25/2019 9 PM EDT 1,011.17 827.40 8,722
3/25/2019 10 PM EDT 1,011.14 827.42 8,710
3/25/2019 11 PM EDT 1,011.13 827.38 8,717
3/26/2019 12 AM EDT 1,011.12 827.41 8,707
3/26/2019 1 AM EDT 1,011.09 827.40 8,712
3/26/2019 2 AM EDT 1,011.11 827.43 8,713
3/26/2019 3 AM EDT 1,011.07 827.43 8,715
3/26/2019 4 AM EDT 1,011.06 827.42 8,705
3/26/2019 5 AM EDT 1,011.06 827.40 8,706
3/26/2019 6 AM EDT 1,011.02 827.42 8,700
3/26/2019 7 AM EDT 1,011.01 827.42 8,710
3/26/2019 8 AM EDT 1,011.01 827.45 8,701
3/26/2019 9 AM EDT 1,010.99 827.35 8,699
3/26/2019 10 AM EDT 1,010.97 827.39 8,702
3/26/2019 11 AM EDT 1,010.95 827.40 8,697
3/26/2019 12 PM EDT 1,010.94 827.38 8,692
3/26/2019 1 PM EDT 1,010.92 827.41 8,702
3/26/2019 2 PM EDT 1,010.90 827.37 8,703

Elevations are in feet above sea level. Discharges are in cubic feet per second and are reported at the end of the hour.